»·PEaware :: N210AR KSEE-KSNA

N210AR :: KSEE-KSNA

FLIGHT INFORMATION

Flight Status: Arrived
Operator: Privately registered:
United States
More flights under this callsign
Pilot: Max S. (16657)
Aircraft: CESSNA 172 SKYHAWK
(C172)
More flights by this aircraft type
Origin: KSEE Gillespie
United States
Destination: KSNA John Wayne-Orange Co
United States
More flights between these airports :: More routes between these airports
Route: +
File this flight plan on PilotEdge
Remarks:
Altitude:
(Current/Filed)
4,500ft
Speed:
(Current/Filed)
100kts
Departed: 27-Aug-20 09:09 AM
Arrived: 27-Aug-20 09:56 AM
Distance/Time
Traveled:
68nm/0:47
Distance/Time
To Go:
Arrived

Flight Plot

Page will automatically refresh every two minutes.


Map Options




Map Legend


Flown Route
Filed Route
Departure Airport
Arrival Airport
Navaid (VOR, NDB)
Fix

Horizontal Profiles

Position Reports

Time Latitude Longitude Heading Altitude Ground
Speed
27-Aug-20 08:41 32.825918 -116.974387 12 373ft 0kts
27-Aug-20 08:42 32.825918 -116.974387 12 373ft 0kts
27-Aug-20 08:43 32.825918 -116.974387 12 373ft 0kts
27-Aug-20 08:44 32.825918 -116.974387 12 373ft 0kts
27-Aug-20 08:45 32.825918 -116.974386 12 373ft 0kts
27-Aug-20 08:46 32.825918 -116.974386 12 373ft 0kts
27-Aug-20 08:47 32.825918 -116.974386 12 373ft 0kts
27-Aug-20 08:47 32.825918 -116.974386 12 373ft 0kts
27-Aug-20 08:49 32.825918 -116.974386 12 373ft 0kts
27-Aug-20 08:50 32.825918 -116.974386 12 373ft 0kts
27-Aug-20 08:51 32.825918 -116.974386 12 373ft 0kts
27-Aug-20 08:51 32.825918 -116.974386 12 373ft 0kts
27-Aug-20 08:52 32.825918 -116.974386 12 373ft 0kts
27-Aug-20 08:53 32.825918 -116.974386 12 373ft 0kts
27-Aug-20 08:54 32.825918 -116.974386 12 373ft 0kts
27-Aug-20 08:55 32.825918 -116.974386 12 373ft 0kts
27-Aug-20 08:56 32.825918 -116.974386 12 373ft 0kts
27-Aug-20 08:57 32.826265 -116.974318 6 372ft 0kts
27-Aug-20 08:58 32.826265 -116.974318 6 372ft 0kts
27-Aug-20 08:59 32.826265 -116.974318 6 372ft 0kts
27-Aug-20 09:00 32.826265 -116.974318 6 372ft 0kts
27-Aug-20 09:02 32.826265 -116.974318 6 372ft 0kts
27-Aug-20 09:03 32.826324 -116.973671 101 373ft 8kts
27-Aug-20 09:04 32.826211 -116.973020 102 374ft 0kts
27-Aug-20 09:05 32.825244 -116.967645 102 383ft 23kts
27-Aug-20 09:06 32.825830 -116.964371 346 391ft 0kts
27-Aug-20 09:07 32.826331 -116.964718 318 390ft 17kts
27-Aug-20 09:08 32.830035 -116.981769 283 914ft 66kts
27-Aug-20 09:09 32.828507 -117.004094 246 1833ft 71kts
27-Aug-20 09:10 32.822387 -117.025781 267 2720ft 69kts
27-Aug-20 09:11 32.816332 -117.047377 246 3552ft 69kts
27-Aug-20 09:12 32.811043 -117.069247 249 4333ft 69kts
27-Aug-20 09:13 32.803686 -117.097470 258 4540ft 117kts
27-Aug-20 09:14 32.802378 -117.137105 271 4365ft 120kts
27-Aug-20 09:15 32.802630 -117.172896 280 4500ft 105kts
27-Aug-20 09:16 32.817659 -117.203585 308 4441ft 104kts
27-Aug-20 09:17 32.834725 -117.230815 310 4520ft 103kts
27-Aug-20 09:18 32.854673 -117.256379 322 4496ft 107kts
27-Aug-20 09:19 32.879641 -117.275473 329 4508ft 106kts
27-Aug-20 09:20 32.907387 -117.288970 335 4482ft 108kts
27-Aug-20 09:21 32.933461 -117.306669 327 4460ft 108kts
27-Aug-20 09:22 32.959433 -117.324975 330 4450ft 109kts
27-Aug-20 09:23 32.986195 -117.341678 329 4450ft 108kts
27-Aug-20 09:24 33.012334 -117.359729 331 4425ft 108kts
27-Aug-20 09:25 33.038275 -117.377408 329 4445ft 105kts
27-Aug-20 09:26 33.062324 -117.396116 321 4560ft 100kts
27-Aug-20 09:27 33.086792 -117.415524 325 4473ft 108kts
27-Aug-20 09:28 33.111979 -117.434759 329 4447ft 107kts
27-Aug-20 09:29 33.136891 -117.453929 325 4479ft 104kts
27-Aug-20 09:30 33.161877 -117.471700 325 4473ft 106kts
27-Aug-20 09:31 33.179171 -117.490488 317 4465ft 106kts
27-Aug-20 09:32 33.203568 -117.510404 327 4434ft 107kts
27-Aug-20 09:33 33.227014 -117.530858 322 4532ft 99kts
27-Aug-20 09:34 33.248374 -117.553821 316 4521ft 103kts
27-Aug-20 09:35 33.270945 -117.575636 323 4353ft 102kts
27-Aug-20 09:36 33.292975 -117.595005 323 3764ft 97kts
27-Aug-20 09:37 33.315519 -117.615478 321 3053ft 101kts
27-Aug-20 09:38 33.339968 -117.633652 333 2488ft 115kts
27-Aug-20 09:39 33.367405 -117.652276 329 2487ft 112kts
27-Aug-20 09:40 33.394269 -117.671520 335 2419ft 112kts
27-Aug-20 09:41 33.422777 -117.685615 335 2456ft 109kts
27-Aug-20 09:42 33.448580 -117.696305 349 2386ft 115kts
27-Aug-20 09:43 33.476926 -117.711662 322 2324ft 114kts
27-Aug-20 09:44 33.504053 -117.732745 323 2298ft 111kts
27-Aug-20 09:45 33.528506 -117.750519 324 2644ft 97kts
27-Aug-20 09:46 33.551328 -117.768082 321 2926ft 98kts
27-Aug-20 09:47 33.579059 -117.774800 25 2924ft 116kts
27-Aug-20 09:48 33.605920 -117.762892 16 2595ft 91kts
27-Aug-20 09:49 33.626224 -117.772696 311 2209ft 108kts
27-Aug-20 09:50 33.642024 -117.802324 300 1710ft 111kts
27-Aug-20 09:51 33.658697 -117.832076 301 1100ft 88kts
27-Aug-20 09:52 33.673010 -117.853579 13 968ft 86kts
27-Aug-20 09:53 33.691425 -117.844247 294 838ft 72kts
27-Aug-20 09:54 33.685276 -117.860755 213 196ft 58kts
27-Aug-20 09:55 33.676889 -117.865611 129 60ft 0kts
27-Aug-20 09:56 33.676889 -117.865611 129 60ft 0kts
27-Aug-20 09:57 33.675086 -117.866473 210 60ft 12kts
27-Aug-20 09:58 33.672437 -117.867895 207 60ft 10kts
27-Aug-20 09:59 33.670805 -117.867901 205 60ft 2kts
27-Aug-20 10:00 33.670769 -117.867922 207 60ft 0kts
27-Aug-20 10:01 33.670769 -117.867922 207 60ft 0kts

Navigation Log

Ident Type
Flight plan parsing failed, navigation log unavailable